Latest Weather Observations for Point Stuart

IDD60901

Issued at 2:51 pm CST Thursday 2 July 2015 (issued every 10 minutes, with the page automatically refreshed every 10 minutes)

About weather observations | Map of Darwin area stations | Latest observations for Darwin area | Other Formats
Station Details ID: 014254 Name: POINT STUART Lat: -12.24 Lon: 131.88 Height: 1.0 m
Data from the previous 72 hours. | See also: Recent months for locations in Northern Territory
Date/Time
CST
Tmp

°C
App
Tmp
°C
Dew
Point
°C
Rel
Hum
%
Delta-T

°C
Wind Press
QNH
hPa
Press
MSL
hPa
Rain
since
9 am
mm
Dir
 
Spd
km/h
Gust
km/h
Spd
kts
Gust
kts
02/02:30pm 32.0 30.8 17.5 42 9.3 NE 20 28 11 15 1013.2 - 0.0
02/02:00pm 31.6 30.2 17.1 41 9.2 NE 20 33 11 18 1013.7 - 0.0
02/01:30pm 32.5 29.0 14.6 34 11.0 E 26 37 14 20 1014.2 - 0.0
02/01:00pm 31.4 27.5 14.5 35 10.3 E 28 35 15 19 1014.8 - 0.0
02/12:30pm 31.5 27.4 13.7 33 10.7 E 28 39 15 21 1015.4 - 0.0
02/12:00pm 31.6 28.3 15.1 36 10.2 E 26 39 14 21 1015.8 1015.8 0.0
02/11:30am 30.3 25.8 12.7 34 10.4 E 28 37 15 20 1016.4 - 0.0
02/11:00am 30.1 25.7 14.2 38 9.6 E 30 39 16 21 1016.6 - 0.0
02/10:30am 29.6 25.1 15.0 41 8.9 E 32 44 17 24 1016.8 - 0.0
02/10:00am 28.4 23.7 14.3 42 8.5 ESE 32 44 17 24 1017.1 - 0.0
02/09:30am 28.0 24.3 15.0 45 7.9 E 28 39 15 21 1017.3 - 0.0
02/09:00am 26.6 24.0 15.9 51 6.5 ESE 24 32 13 17 1017.3 1017.3 0.0
02/08:30am 25.6 24.6 17.5 61 5.1 ESE 19 28 10 15 1017.2 - 0.0
02/08:00am 23.1 26.8 20.8 87 1.5 S 2 9 1 5 1016.9 - 0.0
02/07:30am 20.9 24.3 20.1 95 0.5 SSW 2 6 1 3 1016.6 - 0.0
02/07:00am 20.4 24.0 19.7 96 0.4 CALM 0 0 0 0 1016.5 - 0.0
02/06:30am 20.3 23.9 19.8 97 0.3 CALM 0 0 0 0 1016.3 - 0.0
02/06:00am 20.2 22.5 19.5 96 0.4 SSW 6 7 3 4 1016.0 1016.0 0.0
02/05:30am 20.4 22.5 19.4 94 0.6 S 7 7 4 4 1015.8 - 0.0
02/05:00am 20.9 23.1 19.7 93 0.8 SSE 7 9 4 5 1015.6 - 0.0
02/04:30am 21.4 23.3 19.7 90 1.1 SSE 9 9 5 5 1015.6 - 0.0
02/04:00am 22.0 23.8 19.5 86 1.6 ESE 9 11 5 6 1015.7 - 0.0
02/03:30am 22.6 24.7 19.4 82 2.0 E 7 9 4 5 1015.9 - 0.0
02/03:00am 23.1 24.5 19.5 80 2.3 ENE 11 13 6 7 1015.9 1015.9 0.0
02/02:30am 23.3 24.3 19.5 79 2.4 ENE 13 17 7 9 1016.0 - 0.0
02/02:00am 23.3 24.3 19.5 79 2.4 E 13 17 7 9 1016.3 - 0.0
02/01:30am 23.5 24.1 19.4 78 2.6 E 15 20 8 11 1016.3 - 0.0
02/01:00am 23.8 24.2 18.9 74 3.1 E 15 19 8 10 1016.5 - 0.0
02/12:30am 23.9 23.7 18.5 72 3.4 ESE 17 24 9 13 1016.6 - 0.0
02/12:00am 24.1 23.2 18.3 70 3.6 ESE 20 33 11 18 1016.7 1016.7 0.0
 
Date/Time
CST
Tmp

°C
App
Tmp
°C
Dew
Point
°C
Rel
Hum
%
Delta-T

°C
Wind Press
QNH
hPa
Press
MSL
hPa
Rain
since
9 am
mm
Dir
 
Spd
km/h
Gust
km/h
Spd
kts
Gust
kts
01/11:30pm 24.5 22.3 18.7 70 3.7 E 28 43 15 23 1016.9 - 0.0
01/11:00pm 24.8 23.3 18.5 68 4.0 E 24 33 13 18 1016.8 - 0.0
01/10:30pm 25.1 21.9 18.5 67 4.2 E 33 48 18 26 1016.8 - 0.0
01/10:10pm 25.7 21.5 18.1 63 4.8 E 37 46 20 25 1016.7 - 0.0
01/10:00pm 25.7 22.5 18.1 63 4.8 N 32 46 17 25 1016.7 - 0.0
01/09:40pm 26.0 22.6 18.2 62 4.9 E 33 52 18 28 1016.6 - 0.0
01/09:30pm 26.2 22.8 18.1 61 5.1 E 33 46 18 25 1016.4 - 0.0
01/09:00pm 26.5 24.2 18.4 61 5.1 E 28 39 15 21 1016.0 1016.0 0.0
01/08:30pm 27.0 24.1 18.0 58 5.7 E 30 39 16 21 1015.6 - 0.0
01/08:00pm 27.7 25.9 18.7 58 5.8 ENE 26 39 14 21 1015.0 - 0.0
01/07:30pm 28.2 27.4 17.1 51 7.0 ESE 17 24 9 13 1014.5 - 0.0
01/07:00pm 28.8 28.5 17.3 49 7.2 SE 15 20 8 11 1014.0 - 0.0
01/06:30pm 29.2 29.0 16.7 46 7.8 SE 13 19 7 10 1013.7 - 0.0
01/06:00pm 29.7 28.7 16.5 45 8.2 SE 17 24 9 13 1013.5 1013.5 0.0
01/05:30pm 31.1 29.3 17.0 42 8.9 ESE 22 32 12 17 1013.3 - 0.0
01/05:00pm 31.3 29.7 16.5 41 9.3 SE 20 30 11 16 1013.3 - 0.0
01/04:30pm 31.1 29.9 17.0 42 8.9 SE 19 26 10 14 1013.1 - 0.0
01/04:00pm 30.8 32.2 19.5 51 7.4 ENE 11 20 6 11 1013.2 - 0.0
01/03:30pm 31.2 29.1 15.2 38 9.9 ESE 20 30 11 16 1013.2 - 0.0
01/03:00pm 31.6 29.9 18.2 44 8.6 E 24 33 13 18 1013.2 1013.2 0.0
01/02:30pm 30.9 29.1 16.1 41 9.2 SE 20 28 11 15 1013.7 - 0.0
01/02:00pm 31.6 29.2 15.5 37 10.0 ESE 22 35 12 19 1014.2 - 0.0
01/01:30pm 30.6 28.7 16.6 43 8.8 SSE 22 32 12 17 1014.6 - 0.0
01/01:00pm 29.9 27.8 16.3 43 8.5 S 22 30 12 16 1015.3 - 0.0
01/12:30pm 30.4 29.5 16.8 44 8.6 ESE 17 26 9 14 1016.0 - 0.0
01/12:00pm 30.5 28.1 16.5 43 8.8 E 24 33 13 18 1016.6 1016.6 0.0
01/11:30am 30.1 28.7 16.9 45 8.3 NE 20 28 11 15 1017.1 - 0.0
01/11:00am 28.8 28.1 16.4 47 7.7 SSE 15 26 8 14 1017.5 - 0.0
01/10:30am 28.1 28.3 16.7 50 7.1 SSE 11 19 6 10 1018.0 - 0.0
01/10:00am 27.5 28.0 17.4 54 6.3 SE 11 17 6 9 1018.1 - 0.0
01/09:30am 26.2 27.3 18.8 63 4.7 SSE 11 17 6 9 1018.1 - 0.0
01/09:00am 24.2 24.4 17.7 67 4.0 SSE 13 17 7 9 1018.2 1018.2 0.0
01/08:30am 22.8 23.0 16.8 69 3.7 SSE 11 15 6 8 1017.9 - 0.0
01/08:00am 21.3 22.9 18.3 83 1.9 S 7 11 4 6 1017.5 - 0.0
01/07:30am 19.4 20.8 18.7 96 0.4 S 9 11 5 6 1017.4 - 0.0
01/07:00am 19.2 20.5 19.2 100 0.0 S 11 13 6 7 1016.9 - 0.0
01/06:30am 18.3 19.9 18.3 100 0.0 S 7 9 4 5 1016.6 - 0.0
01/06:00am 18.2 20.0 18.2 100 0.0 SSW 6 7 3 4 1016.2 1016.2 0.0
01/05:30am 18.0 19.6 17.8 99 0.1 S 6 7 3 4 1016.2 - 0.0
01/05:00am 18.7 20.7 18.7 100 0.0 S 6 7 3 4 1016.2 - 0.0
01/04:30am 18.4 20.1 18.4 100 0.0 S 7 7 4 4 1016.2 - 0.0
01/04:00am 18.3 19.8 18.0 98 0.2 SW 7 7 4 4 1016.1 - 0.0
01/03:30am 18.8 20.4 18.3 97 0.3 S 7 9 4 5 1016.1 - 0.0
01/03:00am 19.0 21.6 17.5 91 0.9 CALM 0 0 0 0 1016.1 1016.1 0.0
01/02:30am 19.3 20.5 17.4 89 1.2 W 7 9 4 5 1016.3 - 0.0
01/02:00am 20.3 22.4 18.2 88 1.3 NE 4 6 2 3 1016.6 - 0.0
01/01:30am 20.9 21.7 19.0 89 1.2 E 13 22 7 12 1016.8 - 0.0
01/01:00am 20.5 22.1 19.2 92 0.8 SSW 9 11 5 6 1016.6 - 0.0
01/12:30am 19.9 21.7 18.7 93 0.7 SSW 7 9 4 5 1016.5 - 0.0
01/12:00am 19.9 22.3 18.7 93 0.7 S 4 7 2 4 1016.4 1016.4 0.0
 
Date/Time
CST
Tmp

°C
App
Tmp
°C
Dew
Point
°C
Rel
Hum
%
Delta-T

°C
Wind Press
QNH
hPa
Press
MSL
hPa
Rain
since
9 am
mm
Dir
 
Spd
km/h
Gust
km/h
Spd
kts
Gust
kts
30/11:30pm 19.5 21.9 17.1 86 1.5 CALM 0 0 0 0 1016.4 - 0.0
30/11:00pm 20.2 22.9 17.8 86 1.5 CALM 0 0 0 0 1016.5 - 0.0
30/10:30pm 20.3 23.1 17.9 86 1.5 CALM 0 0 0 0 1016.5 - 0.0
30/10:00pm 20.7 23.0 18.6 88 1.3 S 4 9 2 5 1016.4 - 0.0
30/09:30pm 20.1 22.5 17.1 83 1.8 CALM 0 7 0 4 1016.0 - 0.0
30/09:00pm 20.9 23.0 17.3 80 2.2 S 2 6 1 3 1015.8 1015.8 0.0
30/08:30pm 21.9 23.8 18.9 83 1.9 S 7 7 4 4 1015.2 - 0.0
30/08:00pm 22.2 23.8 17.8 76 2.7 S 6 7 3 4 1014.6 - 0.0
30/07:30pm 22.5 24.2 18.1 76 2.7 SW 6 7 3 4 1014.2 - 0.0
30/07:00pm 23.7 24.8 16.5 64 4.4 W 6 7 3 4 1013.7 - 0.0
30/06:30pm 24.4 24.5 15.6 58 5.3 W 9 11 5 6 1013.4 - 0.0
30/06:00pm 27.2 27.7 15.6 49 7.1 NNW 7 11 4 6 1013.1 1013.1 0.0
30/05:30pm 28.4 27.5 12.7 38 9.2 NNW 9 13 5 7 1012.9 - 0.0
30/05:00pm 29.1 28.3 12.9 37 9.6 NNW 9 13 5 7 1012.9 - 0.0
30/04:30pm 29.5 29.2 13.3 37 9.6 N 7 13 4 7 1012.9 - 0.0
30/04:00pm 30.0 29.3 15.3 41 9.0 NNW 13 19 7 10 1012.9 - 0.0
30/03:30pm 30.8 28.9 13.1 34 10.5 NNW 15 22 8 12 1013.0 - 0.0
30/03:00pm 31.3 28.7 13.1 33 10.9 NW 19 24 10 13 1013.2 1013.2 0.0
30/02:30pm 30.9 29.4 15.3 38 9.6 NNW 17 22 9 12 1013.6 - 0.0
30/02:00pm 31.0 30.6 14.2 36 10.2 ENE 9 15 5 8 1013.9 - 0.0
30/01:30pm 30.9 28.3 10.8 29 11.6 E 15 20 8 11 1014.4 - 0.0
30/01:00pm 31.3 28.6 11.7 30 11.4 E 17 24 9 13 1014.7 - 0.0
30/12:30pm 30.9 28.6 10.3 28 11.7 E 13 22 7 12 1015.3 - 0.0
30/12:00pm 29.5 27.2 10.6 31 10.7 E 13 19 7 10 1015.8 1015.8 0.0
30/11:30am 29.2 27.8 14.6 41 8.8 E 15 22 8 12 1016.5 - 0.0
30/11:00am 29.1 28.1 15.6 44 8.3 E 15 20 8 11 1016.9 - 0.0
30/10:30am 28.1 27.8 14.3 42 8.3 SSW 9 13 5 7 1016.9 - 0.0
30/10:00am 27.6 28.3 16.2 49 7.0 SSE 7 11 4 6 1017.2 - 0.0
30/09:30am 26.7 27.0 16.9 55 6.1 E 11 17 6 9 1017.5 - 0.0
30/09:00am 24.6 27.3 20.7 79 2.5 SSE 7 9 4 5 1017.2 1017.2 0.0
30/08:30am 21.9 26.1 21.7 99 0.1 SE 2 7 1 4 1017.1 - 0.0
30/08:00am 18.9 21.3 18.9 100 0.0 S 4 6 2 3 1016.8 - 0.0
30/07:30am 17.2 18.3 17.2 100 0.0 S 7 9 4 5 1016.5 - 0.0
30/07:00am 17.7 19.1 17.7 100 0.0 S 7 9 4 5 1016.2 - 0.0
30/06:30am 18.0 19.7 18.0 100 0.0 SSE 6 6 3 3 1016.0 - 0.0
30/06:00am 18.8 22.0 18.8 100 0.0 CALM 0 4 0 2 1016.0 1016.0 0.0
30/05:30am 18.9 21.8 18.2 96 0.4 CALM 0 0 0 0 1015.8 - 0.0
30/05:00am 19.4 21.2 18.2 93 0.7 NE 6 7 3 4 1015.8 - 0.0
30/04:30am 20.5 23.7 18.8 90 1.1 CALM 0 7 0 4 1015.9 - 0.0
30/04:00am 21.2 23.7 19.1 88 1.3 N 4 6 2 3 1015.9 - 0.0
30/03:30am 21.3 23.5 19.6 90 1.1 NE 7 9 4 5 1016.1 - 0.0
30/03:00am 19.5 18.8 18.3 93 0.7 E 19 20 10 11 1016.3 1016.3 0.0
30/02:30am 20.0 21.8 18.7 92 0.8 SSW 7 9 4 5 1015.8 - 0.0
30/02:00am 19.7 21.5 18.7 94 0.6 SSW 7 9 4 5 1016.0 - 0.0
30/01:30am 19.4 21.0 18.2 93 0.7 SW 7 9 4 5 1016.1 - 0.0
30/01:00am 19.6 20.9 17.6 88 1.2 SSW 7 9 4 5 1016.3 - 0.0
30/12:30am 20.1 22.3 18.4 90 1.1 E 4 11 2 6 1016.4 - 0.0
30/12:00am 20.3 22.2 19.0 92 0.8 SE 7 11 4 6 1016.5 1016.5 0.0
 
Date/Time
CST
Tmp

°C
App
Tmp
°C
Dew
Point
°C
Rel
Hum
%
Delta-T

°C
Wind Press
QNH
hPa
Press
MSL
hPa
Rain
since
9 am
mm
Dir
 
Spd
km/h
Gust
km/h
Spd
kts
Gust
kts
29/11:30pm 20.1 23.2 19.6 97 0.3 SSW 2 7 1 4 1016.1 - 0.0
29/11:00pm 19.8 22.1 19.5 98 0.2 SW 6 11 3 6 1016.2 - 0.0
29/10:30pm 19.9 22.1 19.6 98 0.2 SW 7 9 4 5 1015.9 - 0.0
29/10:00pm 20.6 23.3 20.6 100 0.0 SW 7 9 4 5 1015.8 - 0.0
29/09:30pm 19.8 21.3 18.8 94 0.6 SW 9 11 5 6 1015.5 - 0.0
29/09:00pm 20.9 24.2 19.2 90 1.1 CALM 0 0 0 0 1015.1 1015.1 0.0
29/08:30pm 21.6 25.3 19.9 90 1.1 CALM 0 0 0 0 1014.9 - 0.0
29/08:00pm 22.0 25.0 18.4 80 2.3 CALM 0 0 0 0 1014.6 - 0.0
29/07:30pm 22.3 24.4 18.1 77 2.6 N 4 7 2 4 1014.3 - 0.0
29/07:00pm 23.6 25.1 18.0 71 3.5 WNW 7 9 4 5 1013.9 - 0.0
29/06:30pm 24.9 26.3 17.9 65 4.4 W 7 9 4 5 1013.8 - 0.0
29/06:00pm 26.9 28.2 18.5 60 5.4 WNW 9 11 5 6 1013.6 1013.6 0.0
29/05:30pm 28.6 30.1 17.5 51 7.0 N 6 11 3 6 1013.4 - 0.0
29/05:00pm 29.0 30.3 17.5 49 7.3 NNE 7 11 4 6 1013.2 - 0.0
29/04:30pm 28.8 29.5 18.0 52 6.9 N 11 15 6 8 1013.2 - 0.0
29/04:00pm 29.5 30.9 17.7 49 7.5 N 7 13 4 7 1013.3 - 0.0
29/03:30pm 29.0 29.1 16.5 46 7.8 N 11 20 6 11 1013.4 - 0.0
29/03:00pm 29.8 29.8 16.2 43 8.5 N 11 19 6 10 1013.5 1013.5 0.0

Latest Capital City Observations: Canberra | Sydney | Melbourne | Brisbane | Adelaide | Perth | Hobart | Darwin

Other Formats:

Comma delimited format used in spreadsheet applications
http://www.bom.gov.au/fwo/IDD60901/IDD60901.94127.axf

JavaScript Object Notation format (JSON) in row-major order
http://www.bom.gov.au/fwo/IDD60901/IDD60901.94127.json